sensor_id;sensor_type;location;lat;lon;timestamp;pressure;altitude;pressure_sealevel;temperature;humidity
30598;BME280;17365;48.878;8.334;2022-07-21T00:01:23;100381.25;;;22.14;89.73
30598;BME280;17365;48.878;8.334;2022-07-21T00:03:48;100378.56;;;22.36;88.24
30598;BME280;17365;48.878;8.334;2022-07-21T00:06:13;100366.31;;;21.91;91.42
30598;BME280;17365;48.878;8.334;2022-07-21T00:08:39;100374.72;;;21.79;92.31
30598;BME280;17365;48.878;8.334;2022-07-21T00:11:04;100373.16;;;21.75;92.59
30598;BME280;17365;48.878;8.334;2022-07-21T00:13:29;100371.84;;;21.63;92.76
30598;BME280;17365;48.878;8.334;2022-07-21T00:15:55;100380.63;;;21.17;94.58
30598;BME280;17365;48.878;8.334;2022-07-21T00:18:20;100365.25;;;21.51;93.05
30598;BME280;17365;48.878;8.334;2022-07-21T00:20:46;100365.81;;;21.82;90.27
30598;BME280;17365;48.878;8.334;2022-07-21T00:23:11;100376.44;;;21.58;91.77
30598;BME280;17365;48.878;8.334;2022-07-21T00:25:37;100379.22;;;21.55;92.12
30598;BME280;17365;48.878;8.334;2022-07-21T00:28:03;100380.72;;;21.61;92.28
30598;BME280;17365;48.878;8.334;2022-07-21T00:30:29;100380.66;;;21.62;91.75
30598;BME280;17365;48.878;8.334;2022-07-21T00:32:54;100386.28;;;21.31;93.84
30598;BME280;17365;48.878;8.334;2022-07-21T00:35:19;100384.97;;;21.43;92.30
30598;BME280;17365;48.878;8.334;2022-07-21T00:37:45;100394.03;;;21.36;92.67
30598;BME280;17365;48.878;8.334;2022-07-21T00:40:11;100399.13;;;21.64;91.22
30598;BME280;17365;48.878;8.334;2022-07-21T00:42:38;100396.75;;;21.56;91.47
30598;BME280;17365;48.878;8.334;2022-07-21T00:45:06;100390.44;;;21.60;91.22
30598;BME280;17365;48.878;8.334;2022-07-21T00:47:32;100387.38;;;21.71;90.32
30598;BME280;17365;48.878;8.334;2022-07-21T00:49:59;100395.00;;;21.78;89.66
30598;BME280;17365;48.878;8.334;2022-07-21T00:52:25;100391.13;;;21.87;89.84
30598;BME280;17365;48.878;8.334;2022-07-21T00:54:51;100385.91;;;22.07;88.05
30598;BME280;17365;48.878;8.334;2022-07-21T00:57:17;100388.66;;;22.04;87.84
30598;BME280;17365;48.878;8.334;2022-07-21T00:59:43;100382.78;;;21.76;89.81
30598;BME280;17365;48.878;8.334;2022-07-21T01:02:09;100392.84;;;21.88;88.47
30598;BME280;17365;48.878;8.334;2022-07-21T01:04:35;100392.06;;;21.86;88.63
30598;BME280;17365;48.878;8.334;2022-07-21T01:07:02;100384.00;;;21.89;88.55
30598;BME280;17365;48.878;8.334;2022-07-21T01:09:29;100397.22;;;21.89;88.16
30598;BME280;17365;48.878;8.334;2022-07-21T01:11:54;100396.91;;;21.75;88.68
30598;BME280;17365;48.878;8.334;2022-07-21T01:14:20;100399.69;;;21.48;90.46
30598;BME280;17365;48.878;8.334;2022-07-21T01:16:45;100394.00;;;21.81;88.28
30598;BME280;17365;48.878;8.334;2022-07-21T01:19:11;100410.41;;;21.89;87.44
30598;BME280;17365;48.878;8.334;2022-07-21T01:21:42;100402.22;;;21.95;86.78
30598;BME280;17365;48.878;8.334;2022-07-21T01:24:08;100397.31;;;22.10;85.89
30598;BME280;17365;48.878;8.334;2022-07-21T01:26:44;100392.22;;;22.03;85.77
30598;BME280;17365;48.878;8.334;2022-07-21T01:29:10;100389.09;;;22.16;86.08
30598;BME280;17365;48.878;8.334;2022-07-21T01:31:37;100405.75;;;21.50;90.56
30598;BME280;17365;48.878;8.334;2022-07-21T01:34:03;100414.28;;;21.80;88.73
30598;BME280;17365;48.878;8.334;2022-07-21T01:36:29;100407.41;;;21.98;87.38
30598;BME280;17365;48.878;8.334;2022-07-21T01:38:54;100415.06;;;21.37;92.12
30598;BME280;17365;48.878;8.334;2022-07-21T01:41:38;100419.91;;;21.26;93.99
30598;BME280;17365;48.878;8.334;2022-07-21T01:44:06;100426.75;;;21.32;94.33
30598;BME280;17365;48.878;8.334;2022-07-21T01:46:35;100424.97;;;21.32;94.74
30598;BME280;17365;48.878;8.334;2022-07-21T01:49:02;100426.81;;;21.30;95.01
30598;BME280;17365;48.878;8.334;2022-07-21T01:51:27;100424.03;;;21.57;92.79
30598;BME280;17365;48.878;8.334;2022-07-21T01:53:53;100431.59;;;21.66;91.75
30598;BME280;17365;48.878;8.334;2022-07-21T01:56:20;100427.34;;;21.62;91.93
30598;BME280;17365;48.878;8.334;2022-07-21T01:58:47;100429.75;;;21.68;91.83
30598;BME280;17365;48.878;8.334;2022-07-21T02:01:15;100431.81;;;21.60;92.08
30598;BME280;17365;48.878;8.334;2022-07-21T02:03:40;100435.94;;;21.67;91.35
30598;BME280;17365;48.878;8.334;2022-07-21T02:06:06;100435.88;;;21.68;91.34
30598;BME280;17365;48.878;8.334;2022-07-21T02:08:32;100442.69;;;21.52;92.60
30598;BME280;17365;48.878;8.334;2022-07-21T02:10:58;100449.72;;;21.75;91.09
30598;BME280;17365;48.878;8.334;2022-07-21T02:13:23;100445.09;;;21.58;92.67
30598;BME280;17365;48.878;8.334;2022-07-21T02:15:49;100446.25;;;21.73;91.71
30598;BME280;17365;48.878;8.334;2022-07-21T02:18:14;100451.91;;;21.86;90.57
30598;BME280;17365;48.878;8.334;2022-07-21T02:20:39;100448.84;;;21.74;91.01
30598;BME280;17365;48.878;8.334;2022-07-21T02:23:05;100462.69;;;21.81;90.75
30598;BME280;17365;48.878;8.334;2022-07-21T02:25:30;100461.53;;;21.88;90.08
30598;BME280;17365;48.878;8.334;2022-07-21T02:27:55;100467.03;;;21.82;90.53
30598;BME280;17365;48.878;8.334;2022-07-21T02:30:21;100467.41;;;21.95;89.35
30598;BME280;17365;48.878;8.334;2022-07-21T02:32:46;100472.97;;;21.89;90.22
30598;BME280;17365;48.878;8.334;2022-07-21T02:37:37;100470.78;;;21.76;91.18
30598;BME280;17365;48.878;8.334;2022-07-21T02:40:04;100472.97;;;21.89;90.41
30598;BME280;17365;48.878;8.334;2022-07-21T02:42:29;100471.34;;;21.85;90.64
30598;BME280;17365;48.878;8.334;2022-07-21T02:44:54;100474.91;;;21.84;90.84
30598;BME280;17365;48.878;8.334;2022-07-21T02:47:19;100478.59;;;21.56;93.42
30598;BME280;17365;48.878;8.334;2022-07-21T02:49:45;100470.00;;;21.96;90.27
30598;BME280;17365;48.878;8.334;2022-07-21T02:52:11;100472.34;;;22.04;89.73
30598;BME280;17365;48.878;8.334;2022-07-21T02:54:36;100478.28;;;22.11;89.50
30598;BME280;17365;48.878;8.334;2022-07-21T02:57:02;100481.03;;;22.07;89.69
30598;BME280;17365;48.878;8.334;2022-07-21T02:59:27;100476.78;;;22.03;90.02
30598;BME280;17365;48.878;8.334;2022-07-21T03:01:52;100477.50;;;22.08;89.71
30598;BME280;17365;48.878;8.334;2022-07-21T03:04:18;100472.25;;;22.07;89.71
30598;BME280;17365;48.878;8.334;2022-07-21T03:06:43;100480.50;;;21.53;93.60
30598;BME280;17365;48.878;8.334;2022-07-21T03:09:09;100473.84;;;21.42;94.85
30598;BME280;17365;48.878;8.334;2022-07-21T03:11:34;100476.03;;;21.55;94.24
30598;BME280;17365;48.878;8.334;2022-07-21T03:14:00;100478.66;;;21.55;94.28
30598;BME280;17365;48.878;8.334;2022-07-21T03:16:26;100477.75;;;21.32;95.43
30598;BME280;17365;48.878;8.334;2022-07-21T03:18:51;100470.16;;;21.70;93.16
30598;BME280;17365;48.878;8.334;2022-07-21T03:21:16;100479.56;;;21.77;92.69
30598;BME280;17365;48.878;8.334;2022-07-21T03:23:41;100471.03;;;21.92;91.69
30598;BME280;17365;48.878;8.334;2022-07-21T03:26:14;100470.75;;;22.00;91.06
30598;BME280;17365;48.878;8.334;2022-07-21T03:28:40;100476.81;;;21.57;93.84
30598;BME280;17365;48.878;8.334;2022-07-21T03:31:06;100480.38;;;21.79;92.57
30598;BME280;17365;48.878;8.334;2022-07-21T03:33:31;100484.63;;;21.36;94.64
30598;BME280;17365;48.878;8.334;2022-07-21T03:35:56;100488.00;;;21.40;95.77
30598;BME280;17365;48.878;8.334;2022-07-21T03:38:23;100484.47;;;21.64;94.09
30598;BME280;17365;48.878;8.334;2022-07-21T03:40:49;100484.75;;;21.33;96.22
30598;BME280;17365;48.878;8.334;2022-07-21T03:43:14;100495.19;;;21.60;94.39
30598;BME280;17365;48.878;8.334;2022-07-21T03:45:39;100495.38;;;21.55;94.38
30598;BME280;17365;48.878;8.334;2022-07-21T03:48:06;100489.16;;;21.56;94.30
30598;BME280;17365;48.878;8.334;2022-07-21T03:50:33;100487.09;;;21.41;95.38
30598;BME280;17365;48.878;8.334;2022-07-21T03:52:59;100494.59;;;21.51;94.65
30598;BME280;17365;48.878;8.334;2022-07-21T03:55:24;100500.53;;;21.58;94.17
30598;BME280;17365;48.878;8.334;2022-07-21T03:57:52;100491.44;;;21.17;97.15
30598;BME280;17365;48.878;8.334;2022-07-21T04:00:21;100499.31;;;21.43;95.91
30598;BME280;17365;48.878;8.334;2022-07-21T04:05:13;100501.09;;;21.66;93.83
30598;BME280;17365;48.878;8.334;2022-07-21T04:07:40;100497.22;;;21.76;92.95
30598;BME280;17365;48.878;8.334;2022-07-21T04:10:07;100498.19;;;21.96;91.35
30598;BME280;17365;48.878;8.334;2022-07-21T04:12:33;100491.50;;;21.87;92.09
30598;BME280;17365;48.878;8.334;2022-07-21T04:14:58;100499.13;;;21.95;91.74
30598;BME280;17365;48.878;8.334;2022-07-21T04:17:24;100491.81;;;22.01;91.10
30598;BME280;17365;48.878;8.334;2022-07-21T04:19:49;100501.03;;;21.91;91.80
30598;BME280;17365;48.878;8.334;2022-07-21T04:22:14;100494.31;;;22.06;90.93
30598;BME280;17365;48.878;8.334;2022-07-21T04:24:40;100493.22;;;22.12;90.49
30598;BME280;17365;48.878;8.334;2022-07-21T04:27:05;100499.16;;;22.17;90.19
30598;BME280;17365;48.878;8.334;2022-07-21T04:29:31;100501.47;;;22.02;91.27
30598;BME280;17365;48.878;8.334;2022-07-21T04:31:56;100496.94;;;22.06;91.14
30598;BME280;17365;48.878;8.334;2022-07-21T04:34:21;100505.03;;;22.01;91.26
30598;BME280;17365;48.878;8.334;2022-07-21T04:36:46;100499.38;;;21.89;92.66
30598;BME280;17365;48.878;8.334;2022-07-21T04:39:12;100495.31;;;22.02;91.75
30598;BME280;17365;48.878;8.334;2022-07-21T04:41:37;100496.94;;;22.06;91.08
30598;BME280;17365;48.878;8.334;2022-07-21T04:44:02;100502.75;;;21.69;94.45
30598;BME280;17365;48.878;8.334;2022-07-21T04:46:28;100503.44;;;21.97;92.20
30598;BME280;17365;48.878;8.334;2022-07-21T04:48:53;100500.81;;;21.97;92.00
30598;BME280;17365;48.878;8.334;2022-07-21T04:51:18;100502.16;;;22.07;90.25
30598;BME280;17365;48.878;8.334;2022-07-21T04:53:43;100499.94;;;22.20;90.38
30598;BME280;17365;48.878;8.334;2022-07-21T04:56:09;100509.94;;;21.89;92.20
30598;BME280;17365;48.878;8.334;2022-07-21T04:58:34;100514.75;;;22.01;91.50
30598;BME280;17365;48.878;8.334;2022-07-21T05:00:59;100518.13;;;22.04;91.02
30598;BME280;17365;48.878;8.334;2022-07-21T05:03:24;100505.03;;;22.01;90.34
30598;BME280;17365;48.878;8.334;2022-07-21T05:05:50;100516.75;;;22.18;89.78
30598;BME280;17365;48.878;8.334;2022-07-21T05:08:15;100521.59;;;22.28;88.62
30598;BME280;17365;48.878;8.334;2022-07-21T05:10:41;100521.22;;;22.16;89.61
30598;BME280;17365;48.878;8.334;2022-07-21T05:13:06;100525.72;;;22.14;89.50
30598;BME280;17365;48.878;8.334;2022-07-21T05:15:31;100522.78;;;22.43;88.27
30598;BME280;17365;48.878;8.334;2022-07-21T05:17:56;100539.13;;;22.31;89.22
30598;BME280;17365;48.878;8.334;2022-07-21T05:20:22;100531.63;;;22.42;88.41
30598;BME280;17365;48.878;8.334;2022-07-21T05:22:47;100537.97;;;22.60;87.34
30598;BME280;17365;48.878;8.334;2022-07-21T05:25:12;100533.66;;;22.35;88.37
30598;BME280;17365;48.878;8.334;2022-07-21T05:27:38;100532.00;;;22.33;89.21
30598;BME280;17365;48.878;8.334;2022-07-21T05:30:04;100537.59;;;22.25;89.73
30598;BME280;17365;48.878;8.334;2022-07-21T05:32:29;100534.88;;;22.49;88.09
30598;BME280;17365;48.878;8.334;2022-07-21T05:34:55;100540.72;;;22.57;87.60
30598;BME280;17365;48.878;8.334;2022-07-21T05:37:20;100532.38;;;22.46;88.99
30598;BME280;17365;48.878;8.334;2022-07-21T05:39:45;100539.97;;;22.53;88.62
30598;BME280;17365;48.878;8.334;2022-07-21T05:42:11;100541.22;;;22.66;87.56
30598;BME280;17365;48.878;8.334;2022-07-21T05:44:36;100535.19;;;22.19;90.88
30598;BME280;17365;48.878;8.334;2022-07-21T05:47:02;100539.97;;;22.53;88.68
30598;BME280;17365;48.878;8.334;2022-07-21T05:49:27;100537.31;;;22.55;88.61
30598;BME280;17365;48.878;8.334;2022-07-21T05:51:52;100536.38;;;22.76;87.18
30598;BME280;17365;48.878;8.334;2022-07-21T05:54:18;100528.31;;;22.59;88.07
30598;BME280;17365;48.878;8.334;2022-07-21T05:56:43;100532.47;;;22.64;88.18
30598;BME280;17365;48.878;8.334;2022-07-21T05:59:08;100533.28;;;22.88;86.28
30598;BME280;17365;48.878;8.334;2022-07-21T06:01:34;100528.03;;;22.87;86.59
30598;BME280;17365;48.878;8.334;2022-07-21T06:03:59;100535.41;;;22.79;87.37
30598;BME280;17365;48.878;8.334;2022-07-21T06:06:24;100534.16;;;22.67;88.07
30598;BME280;17365;48.878;8.334;2022-07-21T06:08:50;100537.06;;;22.81;87.56
30598;BME280;17365;48.878;8.334;2022-07-21T06:11:18;100536.28;;;23.01;85.67
30598;BME280;17365;48.878;8.334;2022-07-21T06:13:44;100540.81;;;23.38;83.99
30598;BME280;17365;48.878;8.334;2022-07-21T06:16:10;100540.47;;;23.46;83.00
30598;BME280;17365;48.878;8.334;2022-07-21T06:18:36;100534.34;;;23.25;82.92
30598;BME280;17365;48.878;8.334;2022-07-21T06:21:03;100529.06;;;23.64;79.31
30598;BME280;17365;48.878;8.334;2022-07-21T06:23:29;100531.69;;;24.03;78.32
30598;BME280;17365;48.878;8.334;2022-07-21T06:25:54;100541.13;;;24.09;75.93
30598;BME280;17365;48.878;8.334;2022-07-21T06:28:20;100546.28;;;24.12;76.95
30598;BME280;17365;48.878;8.334;2022-07-21T06:30:46;100548.91;;;24.12;76.18
30598;BME280;17365;48.878;8.334;2022-07-21T06:33:11;100554.69;;;24.03;76.25
30598;BME280;17365;48.878;8.334;2022-07-21T06:35:37;100549.28;;;23.86;75.72
30598;BME280;17365;48.878;8.334;2022-07-21T06:38:02;100547.78;;;23.80;75.13
30598;BME280;17365;48.878;8.334;2022-07-21T06:40:28;100549.34;;;23.65;74.48
30598;BME280;17365;48.878;8.334;2022-07-21T06:42:53;100545.63;;;23.69;74.86
30598;BME280;17365;48.878;8.334;2022-07-21T06:45:19;100551.97;;;23.65;74.11
30598;BME280;17365;48.878;8.334;2022-07-21T06:47:44;100553.22;;;23.58;74.65
30598;BME280;17365;48.878;8.334;2022-07-21T06:50:10;100545.63;;;23.69;74.22
30598;BME280;17365;48.878;8.334;2022-07-21T06:52:35;100555.63;;;23.63;74.82
30598;BME280;17365;48.878;8.334;2022-07-21T06:55:03;100546.84;;;24.00;73.53
30598;BME280;17365;48.878;8.334;2022-07-21T06:57:28;100556.91;;;23.93;73.47
30598;BME280;17365;48.878;8.334;2022-07-21T06:59:54;100549.22;;;24.06;72.25
30598;BME280;17365;48.878;8.334;2022-07-21T07:02:19;100554.03;;;23.98;72.70
30598;BME280;17365;48.878;8.334;2022-07-21T07:04:44;100565.13;;;23.87;72.66
30598;BME280;17365;48.878;8.334;2022-07-21T07:07:10;100564.97;;;24.09;71.66
30598;BME280;17365;48.878;8.334;2022-07-21T07:09:36;100567.13;;;24.01;71.33
30598;BME280;17365;48.878;8.334;2022-07-21T07:12:01;100570.34;;;24.07;71.97
30598;BME280;17365;48.878;8.334;2022-07-21T07:14:30;100568.88;;;24.02;72.73
30598;BME280;17365;48.878;8.334;2022-07-21T07:16:56;100568.72;;;24.05;72.72
30598;BME280;17365;48.878;8.334;2022-07-21T07:19:21;100573.44;;;23.98;73.04
30598;BME280;17365;48.878;8.334;2022-07-21T07:21:47;100571.56;;;23.81;72.90
30598;BME280;17365;48.878;8.334;2022-07-21T07:24:12;100574.16;;;23.42;74.43
30598;BME280;17365;48.878;8.334;2022-07-21T07:26:37;100567.31;;;23.77;73.54
30598;BME280;17365;48.878;8.334;2022-07-21T07:29:02;100576.56;;;23.88;73.73
30598;BME280;17365;48.878;8.334;2022-07-21T07:31:28;100577.44;;;23.88;73.68
30598;BME280;17365;48.878;8.334;2022-07-21T07:33:53;100579.22;;;23.88;74.03
30598;BME280;17365;48.878;8.334;2022-07-21T07:36:21;100588.69;;;24.12;73.64
30598;BME280;17365;48.878;8.334;2022-07-21T07:38:47;100579.31;;;24.05;73.97
30598;BME280;17365;48.878;8.334;2022-07-21T07:41:13;100583.28;;;24.34;72.31
30598;BME280;17365;48.878;8.334;2022-07-21T07:43:38;100569.06;;;24.54;71.50
30598;BME280;17365;48.878;8.334;2022-07-21T07:46:04;100574.28;;;24.55;71.79
30598;BME280;17365;48.878;8.334;2022-07-21T07:48:30;100575.13;;;24.56;72.15
30598;BME280;17365;48.878;8.334;2022-07-21T07:50:56;100579.56;;;24.74;71.27
30598;BME280;17365;48.878;8.334;2022-07-21T07:53:21;100572.72;;;24.51;72.63
30598;BME280;17365;48.878;8.334;2022-07-21T07:55:47;100562.69;;;24.58;71.82
30598;BME280;17365;48.878;8.334;2022-07-21T07:58:12;100575.19;;;24.37;73.37
30598;BME280;17365;48.878;8.334;2022-07-21T08:00:37;100566.94;;;24.24;73.70
30598;BME280;17365;48.878;8.334;2022-07-21T08:03:03;100571.16;;;24.28;73.96
30598;BME280;17365;48.878;8.334;2022-07-21T08:05:28;100560.84;;;24.94;71.77
30598;BME280;17365;48.878;8.334;2022-07-21T08:07:53;100556.63;;;24.73;72.48
30598;BME280;17365;48.878;8.334;2022-07-21T08:10:19;100560.22;;;24.72;72.52
30598;BME280;17365;48.878;8.334;2022-07-21T08:12:44;100556.81;;;25.05;71.37
30598;BME280;17365;48.878;8.334;2022-07-21T08:15:10;100558.69;;;25.03;71.19
30598;BME280;17365;48.878;8.334;2022-07-21T08:17:35;100557.22;;;24.61;71.02
30598;BME280;17365;48.878;8.334;2022-07-21T08:20:01;100557.34;;;24.94;70.96
30598;BME280;17365;48.878;8.334;2022-07-21T08:22:26;100563.81;;;24.88;70.37
30598;BME280;17365;48.878;8.334;2022-07-21T08:24:52;100558.84;;;25.17;69.74
30598;BME280;17365;48.878;8.334;2022-07-21T08:27:17;100562.84;;;24.89;70.27
30598;BME280;17365;48.878;8.334;2022-07-21T08:29:42;100564.56;;;24.90;71.04
30598;BME280;17365;48.878;8.334;2022-07-21T08:32:08;100559.63;;;25.19;69.96
30598;BME280;17365;48.878;8.334;2022-07-21T08:34:33;100566.63;;;24.85;71.70
30598;BME280;17365;48.878;8.334;2022-07-21T08:36:58;100572.16;;;24.98;70.18
30598;BME280;17365;48.878;8.334;2022-07-21T08:39:24;100571.19;;;24.64;70.27
30598;BME280;17365;48.878;8.334;2022-07-21T08:41:51;100562.41;;;24.98;68.70
30598;BME280;17365;48.878;8.334;2022-07-21T08:44:16;100571.41;;;25.13;68.01
30598;BME280;17365;48.878;8.334;2022-07-21T08:46:42;100566.34;;;25.59;66.23
30598;BME280;17365;48.878;8.334;2022-07-21T08:49:09;100568.84;;;25.29;65.24
30598;BME280;17365;48.878;8.334;2022-07-21T08:51:35;100570.28;;;25.00;64.27
30598;BME280;17365;48.878;8.334;2022-07-21T08:54:02;100578.28;;;24.64;67.69
30598;BME280;17365;48.878;8.334;2022-07-21T08:56:28;100585.13;;;24.87;66.48
30598;BME280;17365;48.878;8.334;2022-07-21T08:58:54;100581.34;;;24.74;67.56
30598;BME280;17365;48.878;8.334;2022-07-21T09:01:19;100575.94;;;24.58;68.33
30598;BME280;17365;48.878;8.334;2022-07-21T09:03:45;100583.00;;;24.76;67.47
30598;BME280;17365;48.878;8.334;2022-07-21T09:06:12;100590.63;;;25.01;65.35
30598;BME280;17365;48.878;8.334;2022-07-21T09:08:42;100582.53;;;25.04;65.40
30598;BME280;17365;48.878;8.334;2022-07-21T09:11:25;100578.66;;;24.56;66.09
30598;BME280;17365;48.878;8.334;2022-07-21T09:14:12;100568.50;;;25.01;65.66
30598;BME280;17365;48.878;8.334;2022-07-21T09:16:43;100564.16;;;25.67;63.05
30598;BME280;17365;48.878;8.334;2022-07-21T09:19:22;100555.72;;;25.76;61.97
30598;BME280;17365;48.878;8.334;2022-07-21T09:21:49;100558.94;;;25.99;60.95
30598;BME280;17365;48.878;8.334;2022-07-21T09:27:06;100565.25;;;25.80;60.14
30598;BME280;17365;48.878;8.334;2022-07-21T09:34:38;100560.56;;;26.49;57.84
30598;BME280;17365;48.878;8.334;2022-07-21T09:37:05;100562.22;;;26.20;57.02
30598;BME280;17365;48.878;8.334;2022-07-21T09:39:49;100554.81;;;26.56;55.42
30598;BME280;17365;48.878;8.334;2022-07-21T09:42:37;100558.16;;;26.76;55.34
30598;BME280;17365;48.878;8.334;2022-07-21T09:45:05;100550.84;;;26.16;55.60
30598;BME280;17365;48.878;8.334;2022-07-21T09:47:31;100551.50;;;26.53;54.30
30598;BME280;17365;48.878;8.334;2022-07-21T09:50:00;100554.97;;;26.85;53.30
30598;BME280;17365;48.878;8.334;2022-07-21T09:52:46;100550.31;;;27.18;53.66
30598;BME280;17365;48.878;8.334;2022-07-21T09:55:14;100542.34;;;27.47;52.22
30598;BME280;17365;48.878;8.334;2022-07-21T09:57:40;100550.03;;;27.37;52.50
30598;BME280;17365;48.878;8.334;2022-07-21T10:00:12;100544.59;;;27.10;52.77
30598;BME280;17365;48.878;8.334;2022-07-21T10:02:38;100544.78;;;27.66;52.14
30598;BME280;17365;48.878;8.334;2022-07-21T10:05:08;100546.81;;;27.46;51.57
30598;BME280;17365;48.878;8.334;2022-07-21T10:07:39;100541.19;;;28.08;51.08
30598;BME280;17365;48.878;8.334;2022-07-21T10:10:05;100545.06;;;27.75;50.84
30598;BME280;17365;48.878;8.334;2022-07-21T10:12:31;100545.31;;;27.56;50.32
30598;BME280;17365;48.878;8.334;2022-07-21T10:14:57;100545.31;;;27.56;50.30
30598;BME280;17365;48.878;8.334;2022-07-21T10:17:23;100541.81;;;27.70;49.96
30598;BME280;17365;48.878;8.334;2022-07-21T10:19:57;100541.97;;;27.96;49.35
30598;BME280;17365;48.878;8.334;2022-07-21T10:25:15;100543.00;;;27.36;51.70
30598;BME280;17365;48.878;8.334;2022-07-21T10:33:04;100542.03;;;27.23;50.84
30598;BME280;17365;48.878;8.334;2022-07-21T10:35:31;100542.09;;;27.66;49.34
30598;BME280;17365;48.878;8.334;2022-07-21T10:38:03;100548.88;;;27.27;46.49
30598;BME280;17365;48.878;8.334;2022-07-21T10:45:45;100543.19;;;27.62;48.72
30598;BME280;17365;48.878;8.334;2022-07-21T10:51:12;100543.56;;;27.27;49.87
30598;BME280;17365;48.878;8.334;2022-07-21T10:53:38;100539.25;;;27.10;50.54
30598;BME280;17365;48.878;8.334;2022-07-21T10:56:05;100544.44;;;27.56;49.32
30598;BME280;17365;48.878;8.334;2022-07-21T10:58:41;100537.00;;;27.18;48.68
30598;BME280;17365;48.878;8.334;2022-07-21T11:01:08;100541.53;;;26.56;49.88
30598;BME280;17365;48.878;8.334;2022-07-21T11:03:44;100535.38;;;26.86;49.45
30598;BME280;17365;48.878;8.334;2022-07-21T11:06:23;100541.31;;;27.05;49.40
30598;BME280;17365;48.878;8.334;2022-07-21T11:11:29;100537.75;;;27.20;49.54
30598;BME280;17365;48.878;8.334;2022-07-21T11:24:31;100527.38;;;28.16;47.23
30598;BME280;17365;48.878;8.334;2022-07-21T11:27:03;100526.75;;;27.83;46.71
30598;BME280;17365;48.878;8.334;2022-07-21T11:29:29;100527.03;;;27.93;45.39
30598;BME280;17365;48.878;8.334;2022-07-21T11:31:56;100516.47;;;28.19;45.92
30598;BME280;17365;48.878;8.334;2022-07-21T11:34:23;100518.91;;;27.95;45.43
30598;BME280;17365;48.878;8.334;2022-07-21T11:37:01;100510.72;;;28.12;45.86
30598;BME280;17365;48.878;8.334;2022-07-21T11:39:26;100495.72;;;28.51;44.81
30598;BME280;17365;48.878;8.334;2022-07-21T11:41:52;100507.28;;;28.10;45.74
30598;BME280;17365;48.878;8.334;2022-07-21T11:44:24;100507.53;;;28.34;44.18
30598;BME280;17365;48.878;8.334;2022-07-21T11:46:57;100504.16;;;28.45;43.85
30598;BME280;17365;48.878;8.334;2022-07-21T11:49:23;100497.16;;;28.69;44.73
30598;BME280;17365;48.878;8.334;2022-07-21T11:56:54;100486.44;;;28.96;43.17
30598;BME280;17365;48.878;8.334;2022-07-21T11:59:21;100488.59;;;28.64;44.29
30598;BME280;17365;48.878;8.334;2022-07-21T12:01:52;100477.84;;;28.78;43.85
30598;BME280;17365;48.878;8.334;2022-07-21T12:04:39;100478.16;;;28.86;42.25
30598;BME280;17365;48.878;8.334;2022-07-21T12:07:11;100479.44;;;28.14;42.02
30598;BME280;17365;48.878;8.334;2022-07-21T12:09:36;100481.44;;;27.55;42.79
30598;BME280;17365;48.878;8.334;2022-07-21T12:12:02;100477.38;;;28.05;44.00
30598;BME280;17365;48.878;8.334;2022-07-21T12:14:48;100479.63;;;27.70;44.36
30598;BME280;17365;48.878;8.334;2022-07-21T12:17:32;100479.66;;;28.11;44.13
30598;BME280;17365;48.878;8.334;2022-07-21T12:19:58;100469.25;;;28.21;44.33
30598;BME280;17365;48.878;8.334;2022-07-21T12:22:36;100464.38;;;28.27;43.27
30598;BME280;17365;48.878;8.334;2022-07-21T12:25:03;100469.78;;;27.99;42.70
30598;BME280;17365;48.878;8.334;2022-07-21T12:27:29;100461.94;;;28.10;42.66
30598;BME280;17365;48.878;8.334;2022-07-21T12:29:56;100469.41;;;28.18;41.69
30598;BME280;17365;48.878;8.334;2022-07-21T12:32:42;100467.59;;;28.32;41.53
30598;BME280;17365;48.878;8.334;2022-07-21T12:35:25;100462.84;;;28.50;40.91
30598;BME280;17365;48.878;8.334;2022-07-21T12:38:11;100466.50;;;28.75;40.85
30598;BME280;17365;48.878;8.334;2022-07-21T12:40:43;100471.34;;;28.82;40.69
30598;BME280;17365;48.878;8.334;2022-07-21T12:43:12;100465.63;;;28.88;40.19
30598;BME280;17365;48.878;8.334;2022-07-21T12:45:54;100467.03;;;28.54;40.72
30598;BME280;17365;48.878;8.334;2022-07-21T12:48:28;100466.38;;;28.90;40.63
30598;BME280;17365;48.878;8.334;2022-07-21T12:51:13;100466.56;;;28.21;41.11
30598;BME280;17365;48.878;8.334;2022-07-21T12:53:50;100467.09;;;28.53;40.72
30598;BME280;17365;48.878;8.334;2022-07-21T12:56:22;100463.69;;;28.90;40.01
30598;BME280;17365;48.878;8.334;2022-07-21T12:58:48;100458.63;;;28.86;40.00
30598;BME280;17365;48.878;8.334;2022-07-21T13:01:16;100445.63;;;29.07;38.82
30598;BME280;17365;48.878;8.334;2022-07-21T13:03:41;100457.13;;;28.82;39.96
30598;BME280;17365;48.878;8.334;2022-07-21T13:06:08;100452.88;;;28.79;39.68
30598;BME280;17365;48.878;8.334;2022-07-21T13:08:35;100462.44;;;28.29;40.35
30598;BME280;17365;48.878;8.334;2022-07-21T13:11:00;100459.91;;;28.67;39.81
30598;BME280;17365;48.878;8.334;2022-07-21T13:13:27;100454.53;;;28.28;40.29
30598;BME280;17365;48.878;8.334;2022-07-21T13:15:53;100454.47;;;28.42;40.42
30598;BME280;17365;48.878;8.334;2022-07-21T13:18:19;100446.84;;;28.76;40.07
30598;BME280;17365;48.878;8.334;2022-07-21T13:20:44;100446.25;;;28.97;39.89
30598;BME280;17365;48.878;8.334;2022-07-21T13:23:09;100451.78;;;28.69;40.13
30598;BME280;17365;48.878;8.334;2022-07-21T13:25:35;100442.00;;;28.95;39.78
30598;BME280;17365;48.878;8.334;2022-07-21T13:28:02;100446.47;;;28.15;40.86
30598;BME280;17365;48.878;8.334;2022-07-21T13:30:27;100443.59;;;28.18;41.05
30598;BME280;17365;48.878;8.334;2022-07-21T13:32:52;100441.59;;;28.61;39.65
30598;BME280;17365;48.878;8.334;2022-07-21T13:35:18;100435.06;;;28.92;38.66
30598;BME280;17365;48.878;8.334;2022-07-21T13:37:43;100436.66;;;29.08;38.54